sensor_id;sensor_type;location;lat;lon;timestamp;P1;durP1;ratioP1;P2;durP2;ratioP2
14282;SDS011;7225;59.282;18.344;2023-04-25T00:02:24;3.10;;;2.90;;
14282;SDS011;7225;59.282;18.344;2023-04-25T00:04:51;3.60;;;3.30;;
14282;SDS011;7225;59.282;18.344;2023-04-25T00:07:19;3.00;;;2.40;;
14282;SDS011;7225;59.282;18.344;2023-04-25T00:09:46;4.43;;;3.13;;
14282;SDS011;7225;59.282;18.344;2023-04-25T00:12:13;3.90;;;2.73;;
14282;SDS011;7225;59.282;18.344;2023-04-25T00:14:40;4.10;;;2.80;;
14282;SDS011;7225;59.282;18.344;2023-04-25T00:17:07;3.93;;;2.53;;
14282;SDS011;7225;59.282;18.344;2023-04-25T00:19:33;3.57;;;2.53;;
14282;SDS011;7225;59.282;18.344;2023-04-25T00:22:01;3.07;;;2.47;;
14282;SDS011;7225;59.282;18.344;2023-04-25T00:24:28;4.03;;;2.73;;
14282;SDS011;7225;59.282;18.344;2023-04-25T00:26:56;2.37;;;2.10;;
14282;SDS011;7225;59.282;18.344;2023-04-25T00:29:23;4.60;;;2.70;;
14282;SDS011;7225;59.282;18.344;2023-04-25T00:31:50;2.27;;;2.00;;
14282;SDS011;7225;59.282;18.344;2023-04-25T00:34:17;2.33;;;2.13;;
14282;SDS011;7225;59.282;18.344;2023-04-25T00:36:43;3.63;;;2.40;;
14282;SDS011;7225;59.282;18.344;2023-04-25T00:39:11;3.50;;;2.10;;
14282;SDS011;7225;59.282;18.344;2023-04-25T00:41:38;2.57;;;1.90;;
14282;SDS011;7225;59.282;18.344;2023-04-25T00:44:06;2.63;;;2.40;;
14282;SDS011;7225;59.282;18.344;2023-04-25T00:46:36;2.93;;;2.60;;
14282;SDS011;7225;59.282;18.344;2023-04-25T00:49:04;3.33;;;1.93;;
14282;SDS011;7225;59.282;18.344;2023-04-25T00:51:31;2.63;;;1.67;;
14282;SDS011;7225;59.282;18.344;2023-04-25T00:53:59;2.40;;;1.67;;
14282;SDS011;7225;59.282;18.344;2023-04-25T00:56:27;4.67;;;1.43;;
14282;SDS011;7225;59.282;18.344;2023-04-25T00:58:54;1.37;;;1.27;;
14282;SDS011;7225;59.282;18.344;2023-04-25T01:01:22;1.60;;;1.40;;
14282;SDS011;7225;59.282;18.344;2023-04-25T01:03:50;1.60;;;1.10;;
14282;SDS011;7225;59.282;18.344;2023-04-25T01:06:17;1.67;;;1.30;;
14282;SDS011;7225;59.282;18.344;2023-04-25T01:08:44;1.53;;;1.20;;
14282;SDS011;7225;59.282;18.344;2023-04-25T01:11:11;1.97;;;1.40;;
14282;SDS011;7225;59.282;18.344;2023-04-25T01:13:38;1.40;;;1.30;;
14282;SDS011;7225;59.282;18.344;2023-04-25T01:16:06;1.77;;;1.20;;
14282;SDS011;7225;59.282;18.344;2023-04-25T01:18:33;2.20;;;1.70;;
14282;SDS011;7225;59.282;18.344;2023-04-25T01:21:10;1.47;;;1.30;;
14282;SDS011;7225;59.282;18.344;2023-04-25T01:23:38;1.23;;;1.10;;
14282;SDS011;7225;59.282;18.344;2023-04-25T01:26:07;2.90;;;1.73;;
14282;SDS011;7225;59.282;18.344;2023-04-25T01:28:36;1.50;;;1.40;;
14282;SDS011;7225;59.282;18.344;2023-04-25T01:31:05;1.43;;;1.33;;
14282;SDS011;7225;59.282;18.344;2023-04-25T01:33:33;2.20;;;1.23;;
14282;SDS011;7225;59.282;18.344;2023-04-25T01:36:00;1.13;;;1.03;;
14282;SDS011;7225;59.282;18.344;2023-04-25T01:38:27;2.07;;;1.57;;
14282;SDS011;7225;59.282;18.344;2023-04-25T01:40:54;2.57;;;1.00;;
14282;SDS011;7225;59.282;18.344;2023-04-25T01:43:22;1.13;;;1.03;;
14282;SDS011;7225;59.282;18.344;2023-04-25T01:45:49;1.27;;;1.00;;
14282;SDS011;7225;59.282;18.344;2023-04-25T01:48:16;1.10;;;1.00;;
14282;SDS011;7225;59.282;18.344;2023-04-25T01:50:43;1.60;;;1.20;;
14282;SDS011;7225;59.282;18.344;2023-04-25T01:53:11;1.90;;;1.40;;
14282;SDS011;7225;59.282;18.344;2023-04-25T01:55:40;1.33;;;1.00;;
14282;SDS011;7225;59.282;18.344;2023-04-25T01:58:07;1.40;;;1.23;;
14282;SDS011;7225;59.282;18.344;2023-04-25T02:00:36;1.80;;;1.10;;
14282;SDS011;7225;59.282;18.344;2023-04-25T02:03:05;0.83;;;0.83;;
14282;SDS011;7225;59.282;18.344;2023-04-25T02:05:36;2.80;;;1.87;;
14282;SDS011;7225;59.282;18.344;2023-04-25T02:08:04;2.53;;;1.77;;
14282;SDS011;7225;59.282;18.344;2023-04-25T02:10:33;1.20;;;1.10;;
14282;SDS011;7225;59.282;18.344;2023-04-25T02:13:01;1.37;;;1.10;;
14282;SDS011;7225;59.282;18.344;2023-04-25T02:15:28;1.93;;;1.20;;
14282;SDS011;7225;59.282;18.344;2023-04-25T02:17:55;1.93;;;1.10;;
14282;SDS011;7225;59.282;18.344;2023-04-25T02:20:23;1.90;;;1.03;;
14282;SDS011;7225;59.282;18.344;2023-04-25T02:22:51;0.73;;;0.73;;
14282;SDS011;7225;59.282;18.344;2023-04-25T02:25:18;4.67;;;1.30;;
14282;SDS011;7225;59.282;18.344;2023-04-25T02:27:46;1.83;;;1.53;;
14282;SDS011;7225;59.282;18.344;2023-04-25T02:30:14;1.10;;;1.00;;
14282;SDS011;7225;59.282;18.344;2023-04-25T02:32:41;1.23;;;1.07;;
14282;SDS011;7225;59.282;18.344;2023-04-25T02:35:08;1.50;;;1.40;;
14282;SDS011;7225;59.282;18.344;2023-04-25T02:37:36;1.10;;;1.00;;
14282;SDS011;7225;59.282;18.344;2023-04-25T02:40:05;1.30;;;1.10;;
14282;SDS011;7225;59.282;18.344;2023-04-25T02:42:33;0.97;;;0.80;;
14282;SDS011;7225;59.282;18.344;2023-04-25T02:45:00;1.20;;;1.00;;
14282;SDS011;7225;59.282;18.344;2023-04-25T02:47:27;1.30;;;1.00;;
14282;SDS011;7225;59.282;18.344;2023-04-25T02:49:54;0.70;;;0.70;;
14282;SDS011;7225;59.282;18.344;2023-04-25T02:52:22;0.83;;;0.80;;
14282;SDS011;7225;59.282;18.344;2023-04-25T02:54:49;1.33;;;1.23;;
14282;SDS011;7225;59.282;18.344;2023-04-25T02:57:16;1.23;;;1.13;;
14282;SDS011;7225;59.282;18.344;2023-04-25T02:59:43;1.60;;;1.03;;
14282;SDS011;7225;59.282;18.344;2023-04-25T03:02:09;1.20;;;1.10;;
14282;SDS011;7225;59.282;18.344;2023-04-25T03:04:36;1.30;;;0.97;;
14282;SDS011;7225;59.282;18.344;2023-04-25T03:07:03;1.67;;;1.20;;
14282;SDS011;7225;59.282;18.344;2023-04-25T03:09:31;1.73;;;1.10;;
14282;SDS011;7225;59.282;18.344;2023-04-25T03:11:58;1.80;;;1.17;;
14282;SDS011;7225;59.282;18.344;2023-04-25T03:14:25;1.00;;;0.90;;
14282;SDS011;7225;59.282;18.344;2023-04-25T03:16:51;0.90;;;0.90;;
14282;SDS011;7225;59.282;18.344;2023-04-25T03:19:19;0.97;;;0.93;;
14282;SDS011;7225;59.282;18.344;2023-04-25T03:21:46;1.67;;;1.33;;
14282;SDS011;7225;59.282;18.344;2023-04-25T03:24:13;3.10;;;2.40;;
14282;SDS011;7225;59.282;18.344;2023-04-25T03:26:40;2.13;;;1.90;;
14282;SDS011;7225;59.282;18.344;2023-04-25T03:29:08;2.00;;;1.47;;
14282;SDS011;7225;59.282;18.344;2023-04-25T03:31:35;1.60;;;1.20;;
14282;SDS011;7225;59.282;18.344;2023-04-25T03:34:03;1.90;;;1.30;;
14282;SDS011;7225;59.282;18.344;2023-04-25T03:36:30;1.30;;;1.20;;
14282;SDS011;7225;59.282;18.344;2023-04-25T03:38:59;2.37;;;1.10;;
14282;SDS011;7225;59.282;18.344;2023-04-25T03:41:26;1.67;;;1.30;;
14282;SDS011;7225;59.282;18.344;2023-04-25T03:43:54;3.33;;;1.63;;
14282;SDS011;7225;59.282;18.344;2023-04-25T03:46:21;2.10;;;1.30;;
14282;SDS011;7225;59.282;18.344;2023-04-25T03:48:48;1.33;;;1.23;;
14282;SDS011;7225;59.282;18.344;2023-04-25T03:51:15;2.03;;;1.80;;
14282;SDS011;7225;59.282;18.344;2023-04-25T03:53:42;2.87;;;2.47;;
14282;SDS011;7225;59.282;18.344;2023-04-25T03:56:09;2.13;;;1.87;;
14282;SDS011;7225;59.282;18.344;2023-04-25T03:58:36;2.43;;;1.80;;
14282;SDS011;7225;59.282;18.344;2023-04-25T04:01:03;3.63;;;2.50;;
14282;SDS011;7225;59.282;18.344;2023-04-25T04:03:34;2.47;;;2.03;;
14282;SDS011;7225;59.282;18.344;2023-04-25T04:06:03;2.57;;;2.33;;
14282;SDS011;7225;59.282;18.344;2023-04-25T04:08:32;3.00;;;2.60;;
14282;SDS011;7225;59.282;18.344;2023-04-25T04:10:59;2.40;;;2.13;;
14282;SDS011;7225;59.282;18.344;2023-04-25T04:13:27;4.37;;;2.50;;
14282;SDS011;7225;59.282;18.344;2023-04-25T04:15:54;2.53;;;2.33;;
14282;SDS011;7225;59.282;18.344;2023-04-25T04:18:21;2.40;;;2.20;;
14282;SDS011;7225;59.282;18.344;2023-04-25T04:20:48;3.03;;;2.73;;
14282;SDS011;7225;59.282;18.344;2023-04-25T04:23:16;2.97;;;2.67;;
14282;SDS011;7225;59.282;18.344;2023-04-25T04:25:43;5.33;;;2.90;;
14282;SDS011;7225;59.282;18.344;2023-04-25T04:28:10;4.40;;;3.13;;
14282;SDS011;7225;59.282;18.344;2023-04-25T04:30:37;4.13;;;3.20;;
14282;SDS011;7225;59.282;18.344;2023-04-25T04:33:05;4.30;;;3.50;;
14282;SDS011;7225;59.282;18.344;2023-04-25T04:35:33;4.03;;;3.33;;
14282;SDS011;7225;59.282;18.344;2023-04-25T04:38:01;4.33;;;3.13;;
14282;SDS011;7225;59.282;18.344;2023-04-25T04:40:28;4.43;;;3.60;;
14282;SDS011;7225;59.282;18.344;2023-04-25T04:42:57;9.27;;;3.50;;
14282;SDS011;7225;59.282;18.344;2023-04-25T04:45:24;4.10;;;3.10;;
14282;SDS011;7225;59.282;18.344;2023-04-25T04:47:51;5.30;;;3.47;;
14282;SDS011;7225;59.282;18.344;2023-04-25T04:50:18;5.23;;;3.30;;
14282;SDS011;7225;59.282;18.344;2023-04-25T04:52:46;4.47;;;4.03;;
14282;SDS011;7225;59.282;18.344;2023-04-25T04:55:13;5.03;;;3.97;;
14282;SDS011;7225;59.282;18.344;2023-04-25T04:57:40;8.90;;;4.60;;
14282;SDS011;7225;59.282;18.344;2023-04-25T05:00:07;5.77;;;3.87;;
14282;SDS011;7225;59.282;18.344;2023-04-25T05:02:37;4.00;;;3.60;;
14282;SDS011;7225;59.282;18.344;2023-04-25T05:05:05;5.47;;;3.80;;
14282;SDS011;7225;59.282;18.344;2023-04-25T05:07:32;6.77;;;4.10;;
14282;SDS011;7225;59.282;18.344;2023-04-25T05:10:00;6.37;;;4.60;;
14282;SDS011;7225;59.282;18.344;2023-04-25T05:12:27;5.20;;;4.20;;
14282;SDS011;7225;59.282;18.344;2023-04-25T05:14:54;4.57;;;4.00;;
14282;SDS011;7225;59.282;18.344;2023-04-25T05:17:21;5.63;;;5.00;;
14282;SDS011;7225;59.282;18.344;2023-04-25T05:19:49;5.73;;;4.03;;
14282;SDS011;7225;59.282;18.344;2023-04-25T05:22:16;6.90;;;4.37;;
14282;SDS011;7225;59.282;18.344;2023-04-25T05:24:43;6.57;;;4.30;;
14282;SDS011;7225;59.282;18.344;2023-04-25T05:27:10;7.73;;;4.77;;
14282;SDS011;7225;59.282;18.344;2023-04-25T05:29:37;6.30;;;4.67;;
14282;SDS011;7225;59.282;18.344;2023-04-25T05:32:04;5.30;;;4.07;;
14282;SDS011;7225;59.282;18.344;2023-04-25T05:34:31;6.03;;;4.17;;
14282;SDS011;7225;59.282;18.344;2023-04-25T05:36:58;6.20;;;4.17;;
14282;SDS011;7225;59.282;18.344;2023-04-25T05:39:25;7.17;;;4.10;;
14282;SDS011;7225;59.282;18.344;2023-04-25T05:41:53;4.60;;;3.87;;
14282;SDS011;7225;59.282;18.344;2023-04-25T05:44:20;4.37;;;3.90;;
14282;SDS011;7225;59.282;18.344;2023-04-25T05:46:48;4.77;;;4.00;;
14282;SDS011;7225;59.282;18.344;2023-04-25T05:49:15;5.33;;;3.53;;
14282;SDS011;7225;59.282;18.344;2023-04-25T05:51:44;5.43;;;4.17;;
14282;SDS011;7225;59.282;18.344;2023-04-25T05:54:11;4.87;;;3.53;;
14282;SDS011;7225;59.282;18.344;2023-04-25T05:56:38;4.10;;;3.50;;
14282;SDS011;7225;59.282;18.344;2023-04-25T05:59:05;5.80;;;4.20;;
14282;SDS011;7225;59.282;18.344;2023-04-25T06:01:32;4.27;;;3.63;;
14282;SDS011;7225;59.282;18.344;2023-04-25T06:03:59;6.67;;;5.43;;
14282;SDS011;7225;59.282;18.344;2023-04-25T06:06:27;3.60;;;3.30;;
14282;SDS011;7225;59.282;18.344;2023-04-25T06:08:54;4.67;;;3.80;;
14282;SDS011;7225;59.282;18.344;2023-04-25T06:11:21;4.20;;;3.50;;
14282;SDS011;7225;59.282;18.344;2023-04-25T06:13:48;3.90;;;3.27;;
14282;SDS011;7225;59.282;18.344;2023-04-25T06:16:16;5.93;;;3.60;;
14282;SDS011;7225;59.282;18.344;2023-04-25T06:18:43;4.77;;;3.40;;
14282;SDS011;7225;59.282;18.344;2023-04-25T06:21:10;8.20;;;3.70;;
14282;SDS011;7225;59.282;18.344;2023-04-25T06:23:37;3.27;;;2.80;;
14282;SDS011;7225;59.282;18.344;2023-04-25T06:26:04;3.40;;;2.80;;
14282;SDS011;7225;59.282;18.344;2023-04-25T06:28:30;3.33;;;2.93;;
14282;SDS011;7225;59.282;18.344;2023-04-25T06:30:57;4.07;;;3.60;;
14282;SDS011;7225;59.282;18.344;2023-04-25T06:33:24;3.93;;;3.53;;
14282;SDS011;7225;59.282;18.344;2023-04-25T06:35:52;6.63;;;5.50;;
14282;SDS011;7225;59.282;18.344;2023-04-25T06:38:19;5.50;;;3.73;;
14282;SDS011;7225;59.282;18.344;2023-04-25T06:40:46;5.00;;;3.53;;
14282;SDS011;7225;59.282;18.344;2023-04-25T06:43:13;4.53;;;3.00;;
14282;SDS011;7225;59.282;18.344;2023-04-25T06:45:40;7.60;;;3.20;;
14282;SDS011;7225;59.282;18.344;2023-04-25T06:48:10;3.73;;;3.03;;
14282;SDS011;7225;59.282;18.344;2023-04-25T06:50:37;4.83;;;3.23;;
14282;SDS011;7225;59.282;18.344;2023-04-25T06:53:04;4.27;;;3.20;;
14282;SDS011;7225;59.282;18.344;2023-04-25T06:55:31;6.97;;;3.53;;
14282;SDS011;7225;59.282;18.344;2023-04-25T06:57:58;5.47;;;3.30;;
14282;SDS011;7225;59.282;18.344;2023-04-25T07:00:25;6.93;;;3.60;;
14282;SDS011;7225;59.282;18.344;2023-04-25T07:02:52;6.90;;;3.60;;
14282;SDS011;7225;59.282;18.344;2023-04-25T07:05:19;4.93;;;4.10;;
14282;SDS011;7225;59.282;18.344;2023-04-25T07:07:47;3.97;;;3.37;;
14282;SDS011;7225;59.282;18.344;2023-04-25T07:10:14;6.37;;;3.37;;
14282;SDS011;7225;59.282;18.344;2023-04-25T07:12:41;4.70;;;3.10;;
14282;SDS011;7225;59.282;18.344;2023-04-25T07:15:08;4.00;;;3.03;;
14282;SDS011;7225;59.282;18.344;2023-04-25T07:17:37;4.10;;;3.30;;
14282;SDS011;7225;59.282;18.344;2023-04-25T07:20:04;4.97;;;3.53;;
14282;SDS011;7225;59.282;18.344;2023-04-25T07:22:32;4.33;;;3.70;;
14282;SDS011;7225;59.282;18.344;2023-04-25T07:24:59;5.40;;;3.33;;
14282;SDS011;7225;59.282;18.344;2023-04-25T07:27:26;5.70;;;3.20;;
14282;SDS011;7225;59.282;18.344;2023-04-25T07:29:53;4.40;;;3.50;;
14282;SDS011;7225;59.282;18.344;2023-04-25T07:32:21;4.77;;;3.57;;
14282;SDS011;7225;59.282;18.344;2023-04-25T07:34:48;3.93;;;3.20;;
14282;SDS011;7225;59.282;18.344;2023-04-25T07:37:15;4.27;;;3.70;;
14282;SDS011;7225;59.282;18.344;2023-04-25T07:39:42;4.57;;;3.13;;
14282;SDS011;7225;59.282;18.344;2023-04-25T07:42:09;4.60;;;3.93;;
14282;SDS011;7225;59.282;18.344;2023-04-25T07:44:36;4.13;;;3.17;;
14282;SDS011;7225;59.282;18.344;2023-04-25T07:47:08;4.97;;;3.27;;
14282;SDS011;7225;59.282;18.344;2023-04-25T07:49:36;7.63;;;3.47;;
14282;SDS011;7225;59.282;18.344;2023-04-25T07:52:04;4.60;;;3.20;;
14282;SDS011;7225;59.282;18.344;2023-04-25T07:54:35;4.63;;;3.27;;
14282;SDS011;7225;59.282;18.344;2023-04-25T07:57:02;6.03;;;3.57;;
14282;SDS011;7225;59.282;18.344;2023-04-25T07:59:29;5.10;;;3.73;;
14282;SDS011;7225;59.282;18.344;2023-04-25T08:01:56;3.77;;;3.17;;
14282;SDS011;7225;59.282;18.344;2023-04-25T08:04:24;3.63;;;3.07;;
14282;SDS011;7225;59.282;18.344;2023-04-25T08:06:52;4.43;;;3.60;;
14282;SDS011;7225;59.282;18.344;2023-04-25T08:09:22;4.83;;;3.73;;
14282;SDS011;7225;59.282;18.344;2023-04-25T08:11:49;4.73;;;3.30;;
14282;SDS011;7225;59.282;18.344;2023-04-25T08:14:16;4.30;;;3.10;;
14282;SDS011;7225;59.282;18.344;2023-04-25T08:16:43;6.73;;;3.53;;
14282;SDS011;7225;59.282;18.344;2023-04-25T08:19:10;5.70;;;3.53;;
14282;SDS011;7225;59.282;18.344;2023-04-25T08:21:38;4.80;;;3.40;;
14282;SDS011;7225;59.282;18.344;2023-04-25T08:24:05;6.10;;;4.17;;
14282;SDS011;7225;59.282;18.344;2023-04-25T08:26:32;5.53;;;3.50;;
14282;SDS011;7225;59.282;18.344;2023-04-25T08:29:00;4.50;;;3.83;;
14282;SDS011;7225;59.282;18.344;2023-04-25T08:31:27;7.63;;;3.90;;
14282;SDS011;7225;59.282;18.344;2023-04-25T08:33:54;4.83;;;3.80;;
14282;SDS011;7225;59.282;18.344;2023-04-25T08:36:21;5.63;;;4.13;;
14282;SDS011;7225;59.282;18.344;2023-04-25T08:39:03;8.97;;;4.23;;
14282;SDS011;7225;59.282;18.344;2023-04-25T08:41:30;6.33;;;4.67;;
14282;SDS011;7225;59.282;18.344;2023-04-25T08:43:58;5.77;;;4.43;;
14282;SDS011;7225;59.282;18.344;2023-04-25T08:46:27;5.30;;;4.40;;
14282;SDS011;7225;59.282;18.344;2023-04-25T08:48:58;6.50;;;4.40;;
14282;SDS011;7225;59.282;18.344;2023-04-25T08:51:30;6.23;;;4.17;;
14282;SDS011;7225;59.282;18.344;2023-04-25T08:54:11;7.27;;;4.60;;
14282;SDS011;7225;59.282;18.344;2023-04-25T08:56:45;6.70;;;4.73;;
14282;SDS011;7225;59.282;18.344;2023-04-25T08:59:14;8.07;;;5.47;;
14282;SDS011;7225;59.282;18.344;2023-04-25T09:01:41;7.73;;;5.47;;
14282;SDS011;7225;59.282;18.344;2023-04-25T09:04:08;8.87;;;6.80;;
14282;SDS011;7225;59.282;18.344;2023-04-25T09:06:35;9.40;;;7.00;;
14282;SDS011;7225;59.282;18.344;2023-04-25T09:09:06;8.63;;;6.23;;
14282;SDS011;7225;59.282;18.344;2023-04-25T09:11:35;10.10;;;6.53;;
14282;SDS011;7225;59.282;18.344;2023-04-25T09:14:12;8.80;;;6.70;;
14282;SDS011;7225;59.282;18.344;2023-04-25T09:17:20;8.83;;;6.63;;
14282;SDS011;7225;59.282;18.344;2023-04-25T09:19:39;8.97;;;6.63;;
14282;SDS011;7225;59.282;18.344;2023-04-25T09:22:07;8.93;;;7.40;;
14282;SDS011;7225;59.282;18.344;2023-04-25T09:24:38;9.87;;;7.30;;
14282;SDS011;7225;59.282;18.344;2023-04-25T09:27:11;7.67;;;6.17;;
14282;SDS011;7225;59.282;18.344;2023-04-25T09:29:40;11.50;;;6.70;;
14282;SDS011;7225;59.282;18.344;2023-04-25T09:34:40;11.27;;;7.63;;
14282;SDS011;7225;59.282;18.344;2023-04-25T09:37:11;10.03;;;7.33;;
14282;SDS011;7225;59.282;18.344;2023-04-25T09:39:38;9.67;;;7.43;;
14282;SDS011;7225;59.282;18.344;2023-04-25T09:42:06;13.60;;;7.67;;
14282;SDS011;7225;59.282;18.344;2023-04-25T09:44:33;10.37;;;7.20;;
14282;SDS011;7225;59.282;18.344;2023-04-25T09:47:00;8.57;;;6.57;;
14282;SDS011;7225;59.282;18.344;2023-04-25T09:49:29;9.57;;;7.50;;
14282;SDS011;7225;59.282;18.344;2023-04-25T09:51:56;10.13;;;7.73;;
14282;SDS011;7225;59.282;18.344;2023-04-25T09:54:24;8.13;;;5.87;;
14282;SDS011;7225;59.282;18.344;2023-04-25T09:56:52;9.87;;;6.53;;
14282;SDS011;7225;59.282;18.344;2023-04-25T09:59:20;8.70;;;6.07;;
14282;SDS011;7225;59.282;18.344;2023-04-25T10:01:49;8.20;;;6.13;;
14282;SDS011;7225;59.282;18.344;2023-04-25T10:04:20;8.13;;;6.20;;
14282;SDS011;7225;59.282;18.344;2023-04-25T10:06:53;10.07;;;6.10;;
14282;SDS011;7225;59.282;18.344;2023-04-25T10:09:21;8.30;;;5.50;;
14282;SDS011;7225;59.282;18.344;2023-04-25T10:11:51;7.50;;;5.77;;
14282;SDS011;7225;59.282;18.344;2023-04-25T10:14:21;8.53;;;5.37;;
14282;SDS011;7225;59.282;18.344;2023-04-25T10:16:48;11.10;;;5.93;;
14282;SDS011;7225;59.282;18.344;2023-04-25T10:19:16;7.27;;;5.80;;
14282;SDS011;7225;59.282;18.344;2023-04-25T10:24:40;6.90;;;5.23;;
14282;SDS011;7225;59.282;18.344;2023-04-25T10:27:08;7.80;;;5.67;;
14282;SDS011;7225;59.282;18.344;2023-04-25T10:29:36;7.57;;;5.83;;
14282;SDS011;7225;59.282;18.344;2023-04-25T10:32:03;8.10;;;6.10;;
14282;SDS011;7225;59.282;18.344;2023-04-25T10:34:43;6.80;;;5.73;;
14282;SDS011;7225;59.282;18.344;2023-04-25T10:37:14;7.47;;;6.63;;
14282;SDS011;7225;59.282;18.344;2023-04-25T10:39:41;8.33;;;6.37;;
14282;SDS011;7225;59.282;18.344;2023-04-25T10:42:09;9.27;;;6.53;;
14282;SDS011;7225;59.282;18.344;2023-04-25T10:44:37;7.13;;;5.83;;
14282;SDS011;7225;59.282;18.344;2023-04-25T10:47:07;7.63;;;6.20;;
14282;SDS011;7225;59.282;18.344;2023-04-25T10:49:36;21.23;;;18.77;;
14282;SDS011;7225;59.282;18.344;2023-04-25T10:52:11;7.20;;;6.07;;
14282;SDS011;7225;59.282;18.344;2023-04-25T10:54:52;6.83;;;5.37;;
14282;SDS011;7225;59.282;18.344;2023-04-25T10:57:42;8.53;;;5.70;;
14282;SDS011;7225;59.282;18.344;2023-04-25T11:00:18;8.57;;;6.43;;
14282;SDS011;7225;59.282;18.344;2023-04-25T11:02:59;7.23;;;5.70;;
14282;SDS011;7225;59.282;18.344;2023-04-25T11:05:31;7.57;;;6.10;;
14282;SDS011;7225;59.282;18.344;2023-04-25T11:08:21;8.10;;;6.57;;
14282;SDS011;7225;59.282;18.344;2023-04-25T11:11:15;7.53;;;5.13;;
14282;SDS011;7225;59.282;18.344;2023-04-25T11:13:43;5.77;;;5.17;;
14282;SDS011;7225;59.282;18.344;2023-04-25T11:16:11;5.70;;;5.20;;
14282;SDS011;7225;59.282;18.344;2023-04-25T11:18:48;6.50;;;5.40;;
14282;SDS011;7225;59.282;18.344;2023-04-25T11:21:16;7.33;;;5.63;;
14282;SDS011;7225;59.282;18.344;2023-04-25T11:23:46;6.40;;;5.80;;
14282;SDS011;7225;59.282;18.344;2023-04-25T11:26:13;7.10;;;5.77;;
14282;SDS011;7225;59.282;18.344;2023-04-25T11:28:44;5.93;;;5.00;;
14282;SDS011;7225;59.282;18.344;2023-04-25T11:31:11;5.80;;;4.90;;
14282;SDS011;7225;59.282;18.344;2023-04-25T11:33:39;6.60;;;5.40;;
14282;SDS011;7225;59.282;18.344;2023-04-25T11:36:07;5.83;;;4.70;;
14282;SDS011;7225;59.282;18.344;2023-04-25T11:38:34;5.87;;;5.00;;
14282;SDS011;7225;59.282;18.344;2023-04-25T11:41:01;4.87;;;4.37;;
14282;SDS011;7225;59.282;18.344;2023-04-25T11:43:28;4.90;;;4.40;;
14282;SDS011;7225;59.282;18.344;2023-04-25T11:45:56;4.90;;;3.60;;
14282;SDS011;7225;59.282;18.344;2023-04-25T11:48:23;4.43;;;3.73;;
14282;SDS011;7225;59.282;18.344;2023-04-25T11:50:53;4.10;;;3.73;;
14282;SDS011;7225;59.282;18.344;2023-04-25T11:53:21;4.87;;;4.30;;
14282;SDS011;7225;59.282;18.344;2023-04-25T11:55:50;3.77;;;3.47;;
14282;SDS011;7225;59.282;18.344;2023-04-25T11:58:17;4.47;;;4.07;;
14282;SDS011;7225;59.282;18.344;2023-04-25T12:00:45;4.10;;;3.70;;
14282;SDS011;7225;59.282;18.344;2023-04-25T12:03:16;4.07;;;3.67;;
14282;SDS011;7225;59.282;18.344;2023-04-25T12:05:45;4.53;;;3.67;;
14282;SDS011;7225;59.282;18.344;2023-04-25T12:08:13;4.93;;;4.30;;
14282;SDS011;7225;59.282;18.344;2023-04-25T12:10:43;4.67;;;4.17;;
14282;SDS011;7225;59.282;18.344;2023-04-25T12:13:21;5.33;;;3.63;;
14282;SDS011;7225;59.282;18.344;2023-04-25T12:15:49;4.20;;;3.80;;
14282;SDS011;7225;59.282;18.344;2023-04-25T12:18:20;4.07;;;3.13;;
14282;SDS011;7225;59.282;18.344;2023-04-25T12:20:50;3.67;;;3.37;;
14282;SDS011;7225;59.282;18.344;2023-04-25T12:23:25;3.90;;;3.60;;
14282;SDS011;7225;59.282;18.344;2023-04-25T12:25:53;5.30;;;4.80;;
14282;SDS011;7225;59.282;18.344;2023-04-25T12:28:22;5.53;;;4.40;;
14282;SDS011;7225;59.282;18.344;2023-04-25T12:33:37;5.13;;;4.37;;
14282;SDS011;7225;59.282;18.344;2023-04-25T12:36:06;6.00;;;4.60;;
14282;SDS011;7225;59.282;18.344;2023-04-25T12:38:41;5.70;;;4.53;;
14282;SDS011;7225;59.282;18.344;2023-04-25T12:41:08;4.40;;;4.00;;
14282;SDS011;7225;59.282;18.344;2023-04-25T12:43:35;4.17;;;3.87;;
14282;SDS011;7225;59.282;18.344;2023-04-25T12:46:02;4.53;;;4.13;;
14282;SDS011;7225;59.282;18.344;2023-04-25T12:48:29;5.10;;;4.70;;
14282;SDS011;7225;59.282;18.344;2023-04-25T12:50:56;4.57;;;4.00;;
14282;SDS011;7225;59.282;18.344;2023-04-25T12:53:23;4.23;;;3.73;;
14282;SDS011;7225;59.282;18.344;2023-04-25T12:55:50;3.90;;;3.60;;
14282;SDS011;7225;59.282;18.344;2023-04-25T12:58:18;3.77;;;3.33;;
14282;SDS011;7225;59.282;18.344;2023-04-25T13:00:46;3.60;;;3.30;;
14282;SDS011;7225;59.282;18.344;2023-04-25T13:03:14;3.90;;;3.20;;
14282;SDS011;7225;59.282;18.344;2023-04-25T13:05:41;4.37;;;3.97;;
14282;SDS011;7225;59.282;18.344;2023-04-25T13:08:08;4.30;;;3.87;;
14282;SDS011;7225;59.282;18.344;2023-04-25T13:10:35;4.13;;;3.73;;
14282;SDS011;7225;59.282;18.344;2023-04-25T13:13:04;4.30;;;3.90;;
14282;SDS011;7225;59.282;18.344;2023-04-25T13:15:31;4.00;;;3.60;;
14282;SDS011;7225;59.282;18.344;2023-04-25T13:17:58;4.77;;;3.70;;
14282;SDS011;7225;59.282;18.344;2023-04-25T13:20:25;4.00;;;3.60;;
14282;SDS011;7225;59.282;18.344;2023-04-25T13:22:52;3.87;;;3.47;;
14282;SDS011;7225;59.282;18.344;2023-04-25T13:25:19;3.67;;;3.20;;
14282;SDS011;7225;59.282;18.344;2023-04-25T13:27:48;4.93;;;3.40;;
14282;SDS011;7225;59.282;18.344;2023-04-25T13:30:15;4.10;;;3.70;;
14282;SDS011;7225;59.282;18.344;2023-04-25T13:32:42;3.27;;;2.97;;
14282;SDS011;7225;59.282;18.344;2023-04-25T13:35:10;3.80;;;3.27;;
14282;SDS011;7225;59.282;18.344;2023-04-25T13:37:38;3.83;;;3.00;;
14282;SDS011;7225;59.282;18.344;2023-04-25T13:40:07;2.97;;;2.70;;
14282;SDS011;7225;59.282;18.344;2023-04-25T13:42:36;4.23;;;3.10;;
14282;SDS011;7225;59.282;18.344;2023-04-25T13:45:04;3.27;;;2.97;;
14282;SDS011;7225;59.282;18.344;2023-04-25T13:47:32;2.60;;;2.40;;
14282;SDS011;7225;59.282;18.344;2023-04-25T13:50:00;2.80;;;2.50;;
14282;SDS011;7225;59.282;18.344;2023-04-25T13:52:29;2.97;;;2.70;;
14282;SDS011;7225;59.282;18.344;2023-04-25T13:54:56;3.27;;;2.60;;
14282;SDS011;7225;59.282;18.344;2023-04-25T13:57:23;3.23;;;2.90;;
14282;SDS011;7225;59.282;18.344;2023-04-25T13:59:51;4.40;;;1.90;;
14282;SDS011;7225;59.282;18.344;2023-04-25T14:02:19;3.50;;;2.67;;
14282;SDS011;7225;59.282;18.344;2023-04-25T14:04:46;4.77;;;3.00;;
14282;SDS011;7225;59.282;18.344;2023-04-25T14:07:13;3.10;;;2.70;;
14282;SDS011;7225;59.282;18.344;2023-04-25T14:09:44;3.03;;;2.73;;
14282;SDS011;7225;59.282;18.344;2023-04-25T14:12:11;3.37;;;3.07;;
14282;SDS011;7225;59.282;18.344;2023-04-25T14:14:38;3.20;;;2.70;;
14282;SDS011;7225;59.282;18.344;2023-04-25T14:17:05;3.23;;;2.80;;
14282;SDS011;7225;59.282;18.344;2023-04-25T14:19:33;3.23;;;2.50;;
14282;SDS011;7225;59.282;18.344;2023-04-25T14:22:00;2.93;;;2.63;;
14282;SDS011;7225;59.282;18.344;2023-04-25T14:24:27;3.40;;;3.03;;
14282;SDS011;7225;59.282;18.344;2023-04-25T14:26:54;3.90;;;3.23;;
14282;SDS011;7225;59.282;18.344;2023-04-25T14:29:21;4.10;;;3.03;;
14282;SDS011;7225;59.282;18.344;2023-04-25T14:31:47;3.50;;;3.00;;
14282;SDS011;7225;59.282;18.344;2023-04-25T14:34:15;3.17;;;2.60;;
14282;SDS011;7225;59.282;18.344;2023-04-25T14:36:42;3.47;;;2.67;;
14282;SDS011;7225;59.282;18.344;2023-04-25T14:39:09;3.20;;;2.40;;
14282;SDS011;7225;59.282;18.344;2023-04-25T14:41:36;2.43;;;2.23;;
14282;SDS011;7225;59.282;18.344;2023-04-25T14:44:03;2.20;;;2.00;;
14282;SDS011;7225;59.282;18.344;2023-04-25T14:46:30;3.00;;;1.73;;
14282;SDS011;7225;59.282;18.344;2023-04-25T14:48:57;4.53;;;1.93;;
14282;SDS011;7225;59.282;18.344;2023-04-25T14:51:25;1.93;;;1.40;;
14282;SDS011;7225;59.282;18.344;2023-04-25T14:53:52;3.47;;;2.23;;
14282;SDS011;7225;59.282;18.344;2023-04-25T14:56:20;3.33;;;2.03;;
14282;SDS011;7225;59.282;18.344;2023-04-25T14:58:47;2.57;;;1.80;;
14282;SDS011;7225;59.282;18.344;2023-04-25T15:01:14;3.47;;;1.97;;
14282;SDS011;7225;59.282;18.344;2023-04-25T15:03:41;2.70;;;1.90;;